createdAt,value
2023-04-18T00:00:27.098Z,15.47
2023-04-18T00:02:55.025Z,14.27
2023-04-18T00:05:21.997Z,14.57
2023-04-18T00:07:48.515Z,14.87
2023-04-18T00:10:14.905Z,13.67
2023-04-18T00:12:41.388Z,13.77
2023-04-18T00:15:08.989Z,16.50
2023-04-18T00:17:38.349Z,14.17
2023-04-18T00:20:11.076Z,13.40
2023-04-18T00:22:42.549Z,17.20
2023-04-18T00:25:10.713Z,16.07
2023-04-18T00:27:38.288Z,15.47
2023-04-18T00:30:06.232Z,15.53
2023-04-18T00:32:32.625Z,16.23
2023-04-18T00:34:59.105Z,14.50
2023-04-18T00:37:25.860Z,20.50
2023-04-18T00:39:53.901Z,17.60
2023-04-18T00:42:25.397Z,16.37
2023-04-18T00:44:51.836Z,16.10
2023-04-18T00:47:18.382Z,15.50
2023-04-18T00:49:45.412Z,14.03
2023-04-18T00:52:12.480Z,19.50
2023-04-18T00:54:40.120Z,13.27
2023-04-18T00:57:06.571Z,14.67
2023-04-18T00:59:35.990Z,15.00
2023-04-18T01:02:03.812Z,11.67
2023-04-18T01:04:32.620Z,12.07
2023-04-18T01:06:59.472Z,11.30
2023-04-18T01:09:26.035Z,11.37
2023-04-18T01:11:52.802Z,10.23
2023-04-18T01:14:19.940Z,9.77
2023-04-18T01:16:46.539Z,11.97
2023-04-18T01:19:19.032Z,10.80
2023-04-18T01:21:45.471Z,8.43
2023-04-18T01:24:17.034Z,9.63
2023-04-18T01:26:45.643Z,8.30
2023-04-18T01:29:12.232Z,10.73
2023-04-18T01:31:39.599Z,12.83
2023-04-18T01:34:06.402Z,12.83
2023-04-18T01:36:33.650Z,12.30
2023-04-18T01:39:00.259Z,13.60
2023-04-18T01:41:29.120Z,15.80
2023-04-18T01:43:55.627Z,18.27
2023-04-18T01:46:22.097Z,17.67
2023-04-18T07:40:58.640Z,25.07
2023-04-18T07:43:25.118Z,25.30
2023-04-18T07:48:18.343Z,18.63
2023-04-18T07:50:45.044Z,21.70
2023-04-18T07:53:11.610Z,18.13
2023-04-18T07:55:38.000Z,18.83
2023-04-18T07:58:04.406Z,17.93
2023-04-18T08:00:32.584Z,14.83
2023-04-18T08:02:59.243Z,21.20
2023-04-18T08:05:25.934Z,18.60
2023-04-18T08:07:52.810Z,18.30
2023-04-18T08:10:19.628Z,14.50
2023-04-18T08:12:47.126Z,13.87
2023-04-18T08:15:13.596Z,14.57
2023-04-18T08:17:42.754Z,17.40
2023-04-18T08:20:09.525Z,14.30
2023-04-18T08:22:39.770Z,13.77
2023-04-18T08:25:13.328Z,20.47
2023-04-18T08:27:39.736Z,14.13
2023-04-18T08:30:07.042Z,14.90
2023-04-18T08:32:33.561Z,15.00
2023-04-18T08:35:00.818Z,14.20
2023-04-18T08:37:27.957Z,13.63
2023-04-18T08:39:54.359Z,13.57
2023-04-18T08:42:22.681Z,10.33
2023-04-18T08:44:49.775Z,12.40
2023-04-18T08:47:16.397Z,12.70
2023-04-18T08:49:45.451Z,12.03
2023-04-18T08:52:14.151Z,11.27
2023-04-18T08:54:46.620Z,9.33
2023-04-18T08:57:28.419Z,10.93
2023-04-18T08:59:55.190Z,11.87
2023-04-18T09:02:23.293Z,12.43
2023-04-18T09:04:52.666Z,8.70
2023-04-18T09:07:21.803Z,8.43
2023-04-18T09:09:50.177Z,10.13
2023-04-18T09:12:44.626Z,7.70
2023-04-18T09:15:14.082Z,8.50
2023-04-18T09:17:43.420Z,8.47
2023-04-18T09:20:10.870Z,9.57
2023-04-18T09:22:51.347Z,8.63
2023-04-18T09:25:34.791Z,7.10
2023-04-18T09:28:05.689Z,6.80
2023-04-18T09:30:36.992Z,4.43
2023-04-18T09:33:05.396Z,6.97
2023-04-18T09:35:31.841Z,8.73
2023-04-18T09:37:58.312Z,5.97
2023-04-18T09:40:24.724Z,4.63
2023-04-18T09:42:54.318Z,5.77
2023-04-18T09:45:21.657Z,3.50
2023-04-18T09:47:48.227Z,3.30
2023-04-18T09:50:16.798Z,4.50
2023-04-18T09:52:44.822Z,4.07
2023-04-18T09:55:13.173Z,6.50
2023-04-18T09:57:42.562Z,4.63
2023-04-18T10:00:16.431Z,4.03
2023-04-18T10:06:31.634Z,4.17
2023-04-18T10:08:58.164Z,3.90
2023-04-18T10:11:24.910Z,4.30
2023-04-18T10:13:53.899Z,4.93
2023-04-18T10:16:20.518Z,3.90
2023-04-18T10:18:49.417Z,6.40
2023-04-18T10:21:15.917Z,4.47
2023-04-18T10:23:42.519Z,5.47
2023-04-18T10:26:10.446Z,3.60
2023-04-18T10:28:59.479Z,4.43
2023-04-18T10:31:27.457Z,6.67
2023-04-18T10:54:30.850Z,7.60
2023-04-18T10:57:00.039Z,7.97
2023-04-18T10:59:26.931Z,7.30
2023-04-18T11:01:59.880Z,7.60
2023-04-18T11:04:26.454Z,10.20
2023-04-18T11:12:06.808Z,6.53
2023-04-18T11:14:53.586Z,8.43
2023-04-18T11:17:28.563Z,8.57
2023-04-18T11:20:01.925Z,7.83
2023-04-18T11:22:28.422Z,8.90
2023-04-18T11:25:01.736Z,7.90
2023-04-18T11:27:29.654Z,8.83
2023-04-18T11:29:56.227Z,9.53
2023-04-18T11:32:23.423Z,9.73
2023-04-18T11:34:54.133Z,8.20
2023-04-18T11:37:21.121Z,12.07
2023-04-18T11:39:47.674Z,8.67
2023-04-18T11:42:14.116Z,8.33
2023-04-18T11:44:43.782Z,9.70
2023-04-18T11:47:26.796Z,12.03
2023-04-18T11:49:57.770Z,13.03
2023-04-18T11:52:24.994Z,9.90
2023-04-18T11:54:51.454Z,8.37
2023-04-18T11:57:25.958Z,8.00
2023-04-18T11:59:54.177Z,11.27
2023-04-18T12:02:22.392Z,8.30
2023-04-18T12:05:00.055Z,8.60
2023-04-18T12:07:34.854Z,6.80
2023-04-18T12:10:01.721Z,7.20
2023-04-18T12:12:28.227Z,6.10
2023-04-18T12:22:40.242Z,5.53
2023-04-18T12:25:14.011Z,5.80
2023-04-18T12:27:53.993Z,6.47
2023-04-18T12:30:24.733Z,7.50
2023-04-18T12:32:53.506Z,8.23
2023-04-18T12:35:20.859Z,5.10
2023-04-18T12:37:48.450Z,6.40
2023-04-18T12:40:15.587Z,6.63
2023-04-18T12:42:42.526Z,6.40
2023-04-18T12:45:10.533Z,6.93
2023-04-18T12:47:41.626Z,4.90
2023-04-18T12:50:11.358Z,4.90
2023-04-18T12:52:39.419Z,5.10
2023-04-18T12:55:09.406Z,5.60
2023-04-18T12:57:36.278Z,6.90
2023-04-18T13:00:06.370Z,7.20
2023-04-18T13:02:35.285Z,7.23
2023-04-18T13:05:01.934Z,8.13
2023-04-18T13:07:28.407Z,5.43
2023-04-18T13:09:54.805Z,6.33
2023-04-18T13:12:21.337Z,6.30
2023-04-18T13:14:47.768Z,5.23
2023-04-18T13:17:14.166Z,5.10
2023-04-18T13:19:41.476Z,5.17
2023-04-18T13:22:08.026Z,5.97
2023-04-18T13:24:34.451Z,5.70
2023-04-18T13:27:02.503Z,7.17
2023-04-18T13:29:28.952Z,5.27
2023-04-18T13:31:55.440Z,6.13
2023-04-18T13:34:21.855Z,5.40
2023-04-18T13:36:48.290Z,4.30
2023-04-18T13:39:15.228Z,5.87
2023-04-18T13:41:41.788Z,7.07
2023-04-18T13:44:08.189Z,5.67
2023-04-18T13:46:34.873Z,6.87
2023-04-18T13:49:01.405Z,5.23
2023-04-18T13:51:27.798Z,6.00
2023-04-18T13:53:54.212Z,6.23
2023-04-18T13:56:20.827Z,4.53
2023-04-18T13:58:47.375Z,6.13
2023-04-18T14:01:14.112Z,5.13
2023-04-18T14:03:43.601Z,5.53
2023-04-18T14:06:11.049Z,5.50
2023-04-18T14:08:37.553Z,5.67
2023-04-18T14:11:04.089Z,6.77
2023-04-18T14:13:30.629Z,7.70
2023-04-18T14:15:57.147Z,7.00
2023-04-18T14:18:24.602Z,8.40
2023-04-18T14:20:51.352Z,5.83
2023-04-18T14:23:18.247Z,6.73
2023-04-18T14:25:44.753Z,5.77
2023-04-18T14:28:11.986Z,6.77
2023-04-18T14:30:39.672Z,5.27
2023-04-18T14:33:07.409Z,5.00
2023-04-18T14:35:33.826Z,6.23
2023-04-18T14:38:00.316Z,6.83
2023-04-18T14:40:27.129Z,8.97
2023-04-18T14:42:53.771Z,6.87
2023-04-18T14:45:20.237Z,8.10
2023-04-18T14:47:46.802Z,7.03
2023-04-18T14:50:13.450Z,6.50
2023-04-18T14:52:40.529Z,7.07
2023-04-18T14:55:08.171Z,5.90
2023-04-18T14:57:36.344Z,8.93
2023-04-18T15:00:05.469Z,7.87
2023-04-18T15:02:32.279Z,6.43
2023-04-18T15:04:59.216Z,5.63
2023-04-18T15:07:25.738Z,5.33
2023-04-18T15:09:52.162Z,7.17
2023-04-18T15:12:18.574Z,6.90
2023-04-18T15:14:45.248Z,10.27
2023-04-18T15:17:11.659Z,6.97
2023-04-18T15:19:38.041Z,6.50
2023-04-18T15:22:04.513Z,5.40
2023-04-18T15:24:30.924Z,7.07
2023-04-18T15:26:58.632Z,7.97
2023-04-18T15:29:25.192Z,7.80
2023-04-18T15:31:51.906Z,9.73
2023-04-18T15:34:18.483Z,6.73
2023-04-18T15:36:46.845Z,7.93
2023-04-18T15:39:13.229Z,6.37
2023-04-18T15:41:41.976Z,6.90
2023-04-18T15:44:08.587Z,9.20
2023-04-18T15:46:36.647Z,6.53
2023-04-18T15:49:03.114Z,9.67
2023-04-18T15:51:30.278Z,8.30
2023-04-18T15:53:56.732Z,6.87
2023-04-18T15:56:26.089Z,7.17
2023-04-18T15:58:54.830Z,8.37
2023-04-18T16:01:21.262Z,7.73
2023-04-18T16:03:47.745Z,7.93
2023-04-18T16:06:14.952Z,6.47
2023-04-18T16:08:41.580Z,7.97
2023-04-18T16:11:08.627Z,11.47
2023-04-18T16:13:38.434Z,9.00
2023-04-18T16:16:05.867Z,8.03
2023-04-18T16:18:32.491Z,8.03
2023-04-18T16:20:59.257Z,9.27
2023-04-18T16:23:26.294Z,9.40
2023-04-18T16:25:56.227Z,8.97
2023-04-18T16:28:22.818Z,11.57
2023-04-18T16:30:50.007Z,9.33
2023-04-18T16:33:16.640Z,9.63
2023-04-18T16:35:43.169Z,10.37
2023-04-18T16:38:09.556Z,9.30
2023-04-18T16:40:35.987Z,10.23
2023-04-18T16:43:02.372Z,13.43
2023-04-18T16:45:28.825Z,10.60
2023-04-18T16:47:55.262Z,11.20
2023-04-18T16:50:22.493Z,10.63
2023-04-18T16:52:48.931Z,14.37
2023-04-18T16:55:15.309Z,14.03
2023-04-18T16:57:41.717Z,12.93
2023-04-18T17:00:10.030Z,15.83
2023-04-18T17:02:39.515Z,14.20
2023-04-18T17:05:06.719Z,13.37
2023-04-18T17:07:33.114Z,11.93
2023-04-18T17:09:59.473Z,13.83
2023-04-18T17:12:26.026Z,13.30
2023-04-18T17:14:52.742Z,12.57
2023-04-18T17:17:19.137Z,14.70
2023-04-18T17:19:46.432Z,14.73
2023-04-18T17:22:12.868Z,15.77
2023-04-18T17:24:39.269Z,14.33
2023-04-18T17:27:05.707Z,18.27
2023-04-18T17:29:32.086Z,14.73
2023-04-18T17:31:58.569Z,16.50
2023-04-18T17:34:25.046Z,16.97
2023-04-18T17:36:51.579Z,13.97
2023-04-18T17:39:18.155Z,16.77
2023-04-18T17:41:45.088Z,17.60
2023-04-18T17:44:11.477Z,16.60
2023-04-18T17:46:37.994Z,13.57
2023-04-18T17:49:04.685Z,16.87
2023-04-18T17:51:31.309Z,16.70
2023-04-18T17:53:57.688Z,16.17
2023-04-18T17:56:24.339Z,16.50
2023-04-18T17:58:51.450Z,13.93
2023-04-18T18:01:19.801Z,14.73
2023-04-18T18:03:47.171Z,14.57
2023-04-18T18:06:14.855Z,15.37
2023-04-18T18:08:42.658Z,13.63
2023-04-18T18:11:09.805Z,15.83
2023-04-18T18:13:36.379Z,14.37
2023-04-18T18:16:02.968Z,13.73
2023-04-18T18:18:29.738Z,16.03
2023-04-18T18:20:57.920Z,15.43
2023-04-18T18:23:24.840Z,14.03
2023-04-18T18:25:52.071Z,13.63
2023-04-18T18:28:18.717Z,15.90
2023-04-18T18:30:45.223Z,13.20
2023-04-18T18:33:11.695Z,14.23
2023-04-18T18:35:38.211Z,14.77
2023-04-18T18:38:04.690Z,16.40
2023-04-18T18:40:31.090Z,13.27
2023-04-18T18:42:57.512Z,17.60
2023-04-18T18:45:24.143Z,16.57
2023-04-18T18:47:51.098Z,10.73
2023-04-18T18:50:17.696Z,14.53
2023-04-18T18:52:44.122Z,12.10
2023-04-18T18:55:11.126Z,12.63
2023-04-18T18:57:37.792Z,15.80
2023-04-18T19:00:11.433Z,14.77
2023-04-18T19:02:38.709Z,14.23
2023-04-18T19:05:05.896Z,15.20
2023-04-18T19:07:32.448Z,15.70
2023-04-18T19:10:00.496Z,13.77
2023-04-18T19:12:27.848Z,15.00
2023-04-18T19:14:54.263Z,16.03
2023-04-18T19:17:24.508Z,11.43
2023-04-18T19:19:52.037Z,15.77
2023-04-18T19:22:18.477Z,15.27
2023-04-18T19:24:44.868Z,17.90
2023-04-18T19:27:11.240Z,15.77
2023-04-18T19:29:37.621Z,12.70
2023-04-18T19:32:04.325Z,12.87
2023-04-18T19:34:30.755Z,12.87
2023-04-18T19:36:57.153Z,14.77
2023-04-18T19:39:23.540Z,13.87
2023-04-18T19:41:49.961Z,16.17
2023-04-18T19:44:16.383Z,14.03
2023-04-18T19:46:42.851Z,11.80
2023-04-18T19:49:09.228Z,11.90
2023-04-18T19:51:35.661Z,14.23
2023-04-18T19:54:02.111Z,14.50
2023-04-18T19:56:28.491Z,14.23
2023-04-18T19:58:55.192Z,12.27
2023-04-18T20:01:21.783Z,16.03
2023-04-18T20:03:48.656Z,12.77
2023-04-18T20:06:16.375Z,12.93
2023-04-18T20:08:42.874Z,16.67
2023-04-18T20:11:10.663Z,14.90
2023-04-18T20:13:37.794Z,14.40
2023-04-18T20:16:05.408Z,14.10
2023-04-18T20:18:32.148Z,13.00
2023-04-18T20:20:58.633Z,12.40
2023-04-18T20:23:25.500Z,12.67
2023-04-18T20:25:51.873Z,13.17
2023-04-18T20:28:18.259Z,14.93
2023-04-18T20:30:45.673Z,16.40
2023-04-18T20:33:12.187Z,12.70
2023-04-18T20:35:39.014Z,10.80
2023-04-18T20:38:06.688Z,13.57
2023-04-18T20:40:34.235Z,15.03
2023-04-18T20:43:02.934Z,12.00
2023-04-18T20:45:29.987Z,13.33
2023-04-18T20:47:58.378Z,12.73
2023-04-18T20:50:24.861Z,13.17
2023-04-18T20:52:51.568Z,15.87
2023-04-18T20:55:18.068Z,13.40
2023-04-18T20:57:44.597Z,12.60
2023-04-18T21:00:11.872Z,14.27
2023-04-18T21:02:38.406Z,17.43
2023-04-18T21:05:05.247Z,14.17
2023-04-18T21:07:32.443Z,14.07
2023-04-18T21:09:58.968Z,17.03
2023-04-18T21:12:25.514Z,11.23
2023-04-18T21:14:52.184Z,13.53
2023-04-18T21:17:18.950Z,13.70
2023-04-18T21:19:48.969Z,14.67
2023-04-18T21:22:15.998Z,12.90
2023-04-18T21:24:43.247Z,13.83
2023-04-18T21:27:12.581Z,17.23
2023-04-18T21:29:41.082Z,11.10
2023-04-18T21:32:07.516Z,13.73
2023-04-18T21:34:33.891Z,14.23
2023-04-18T21:37:00.668Z,16.00
2023-04-18T21:39:27.247Z,13.53
2023-04-18T21:41:53.679Z,13.17
2023-04-18T21:44:20.147Z,14.70
2023-04-18T21:46:46.585Z,11.57
2023-04-18T21:49:13.336Z,13.73
2023-04-18T21:51:39.777Z,13.77
2023-04-18T21:54:07.328Z,14.27
2023-04-18T21:56:33.701Z,13.70
2023-04-18T21:59:00.269Z,10.53
2023-04-18T22:01:26.955Z,12.10
2023-04-18T22:03:53.863Z,13.70
2023-04-18T22:06:20.777Z,10.33
2023-04-18T22:08:48.176Z,11.13
2023-04-18T22:11:15.695Z,10.40
2023-04-18T22:13:44.850Z,13.33
2023-04-18T22:16:11.509Z,10.93
2023-04-18T22:18:38.252Z,11.10
2023-04-18T22:21:04.815Z,10.00
2023-04-18T22:23:31.485Z,12.27
2023-04-18T22:25:57.891Z,12.00
2023-04-18T22:28:24.620Z,12.60
2023-04-18T22:30:51.286Z,11.53
2023-04-18T22:33:17.830Z,13.07
2023-04-18T22:35:44.519Z,11.27
2023-04-18T22:38:10.934Z,11.60
2023-04-18T22:40:37.412Z,14.23
2023-04-18T22:43:03.843Z,11.07
2023-04-18T22:45:30.313Z,9.83
2023-04-18T22:47:57.040Z,11.93
2023-04-18T22:50:23.576Z,11.80
2023-04-18T22:52:51.003Z,9.13
2023-04-18T22:55:17.454Z,8.77
2023-04-18T22:57:43.868Z,10.60
2023-04-18T23:00:11.026Z,16.33
2023-04-18T23:02:37.763Z,11.00
2023-04-18T23:05:05.984Z,10.07
2023-04-18T23:07:32.384Z,16.13
2023-04-18T23:09:58.991Z,11.20
2023-04-18T23:12:26.699Z,12.30
2023-04-18T23:14:53.124Z,11.33
2023-04-18T23:17:19.593Z,11.40
2023-04-18T23:19:46.101Z,8.97
2023-04-18T23:22:12.487Z,9.67
2023-04-18T23:24:38.938Z,10.43
2023-04-18T23:27:05.328Z,8.07
2023-04-18T23:29:31.720Z,10.50
2023-04-18T23:31:58.196Z,9.10
2023-04-18T23:34:24.619Z,8.27
2023-04-18T23:36:50.974Z,10.47
2023-04-18T23:39:18.519Z,10.23
2023-04-18T23:41:45.561Z,8.67
2023-04-18T23:44:11.956Z,11.60
2023-04-18T23:46:38.391Z,11.57
2023-04-18T23:51:31.094Z,8.13
2023-04-18T23:53:57.475Z,9.27
2023-04-18T23:56:24.130Z,7.47
2023-04-18T23:58:50.547Z,12.47
